Jamison, South Carolina
Current Conditions -  °F | °C
As of 8:38 PM on Tuesday 25 Nov 2014 (Local Time) from KOGB Reporting Station
Light Rain Light Rain  
Wind Chill: 59°   Ceiling: 900
Heat Index: 59°   Visibility: 6mi
Dew Point: 56°   Wind: 6mph
Humidity: 90%   Direction: 40°NE
Pressure: 30.02"   Gusts: NA
Location:  33.4964°N, 80.8317°W
Report Text: KOGB 260138Z AUTO 04005KT 6SM -RA BR OVC009 15/13 A3002 RMK AO2 P0002 T01500133
Loading
Personal Weather Stations






























Interactive Weather Map New forecast layout! Learn more

10-Day Weather Forecast

Advertisements
Track Severe Weather on mobile